Airfield :
LOGIN :

Register | Disclaimer

   EN    FR    IT 

 










Legend :    VFR   Marginal VFR   IFR   Intensive IFR   Very Intensive IFR
Visi :
Ceiling :
>= 8 km
>= 3000ft
5 to 8 km
1000 to 3000 ft
1500m to 5 km
500 to 1000 ft
800 to 1500m
200 to 500 ft
< 800m
< 200 ft
Symbols :   Thunderstorms  Fog  Heavy snow  Heavy precipitations  Wind > 20 kt
SIGMETs :     Misc.  Thunderstorms  Icing  Turbulence  Mountain Waves  Volcanic Ashes






- Airport Elevation : 359 ft
- IATA code : BVA


LFOB - Beauvais

CURRENT METAR :
  • 070830Z AUTO 35003KT 310V030 9000 NSC 01/M01 Q1025 NOSIG

EXPIRED METARs :
  • 070800Z AUTO 31003KT 7000 NSC M01/M02 Q1025 NOSIG
  • 070730Z AUTO 31005KT 6000 NSC M03/M03 Q1025 NOSIG
  • 070700Z AUTO 30004KT 5000 BR NSC M05/M06 Q1025 NOSIG
  • 070630Z AUTO 28003KT 6000 NSC M04/M05 Q1025 NOSIG
  • 070600Z AUTO 30004KT 7000 NSC M05/M06 Q1026 NOSIG

TAF TAF LFOB
Valid from the 07 at 06:00 until the 08 at 06:00 UTC


070500Z 0706/0806 02007KT CAVOK
ATIS : +33 3 44 11 49 28



MET'MAP, your aeronautical weather chart ! - Copyright ORBIFLY December 2007 - Disclaimer

ORBIFLY MET'MAP TEAM :

Programming & Development : Alexandra Zaïnal
Concept & original design : Baudouin d'Aumeries
Assistance for programming : Marc-Olivier Méhu
Technical & hardware support : Manuel Goepfert

Contact : metmap@orbifly.com




SOURCES & CREDITS :

   NOAA